createdAt,value
2022-08-29T00:05:45.078Z,60.55
2022-08-29T00:08:18.053Z,60.59
2022-08-29T00:15:07.899Z,61.01
2022-08-29T00:17:35.556Z,61.10
2022-08-29T00:20:06.009Z,60.85
2022-08-29T00:22:33.722Z,60.97
2022-08-29T00:25:01.303Z,60.62
2022-08-29T00:27:29.313Z,60.81
2022-08-29T00:30:14.532Z,60.71
2022-08-29T00:33:01.233Z,60.58
2022-08-29T00:35:35.025Z,60.68
2022-08-29T00:41:44.978Z,60.70
2022-08-29T00:44:12.778Z,60.77
2022-08-29T00:51:01.413Z,60.75
2022-08-29T00:53:44.495Z,60.65
2022-08-29T01:00:33.587Z,60.40
2022-08-29T01:03:01.060Z,60.61
2022-08-29T01:05:28.682Z,60.60
2022-08-29T01:07:56.021Z,60.41
2022-08-29T01:10:23.550Z,60.51
2022-08-29T01:12:50.804Z,60.49
2022-08-29T01:19:39.561Z,60.74
2022-08-29T01:22:30.979Z,60.48
2022-08-29T01:25:02.018Z,60.67
2022-08-29T01:35:38.444Z,60.73
2022-08-29T01:38:05.703Z,60.79
2022-08-29T01:40:35.610Z,60.74
2022-08-29T01:43:02.796Z,60.67
2022-08-29T01:45:30.097Z,60.59
2022-08-29T01:47:59.911Z,60.55
2022-08-29T01:50:33.160Z,60.24
2022-08-29T01:53:00.306Z,60.73
2022-08-29T01:55:31.487Z,60.61
2022-08-29T01:57:59.148Z,60.50
2022-08-29T02:00:26.399Z,60.55
2022-08-29T02:02:53.843Z,60.63
2022-08-29T02:09:30.996Z,60.71
2022-08-29T02:12:00.218Z,60.70
2022-08-29T02:14:27.369Z,60.83
2022-08-29T02:16:54.571Z,60.77
2022-08-29T02:24:25.738Z,60.68
2022-08-29T02:31:04.565Z,60.66
2022-08-29T02:33:32.679Z,60.59
2022-08-29T02:35:59.973Z,60.37
2022-08-29T02:38:29.447Z,60.50
2022-08-29T02:40:57.205Z,60.51
2022-08-29T02:47:16.278Z,60.75
2022-08-29T02:49:43.829Z,60.60
2022-08-29T02:55:53.294Z,60.43
2022-08-29T02:58:22.989Z,60.13
2022-08-29T03:00:51.419Z,60.17
2022-08-29T03:03:19.376Z,60.18
2022-08-29T03:05:47.242Z,60.22
2022-08-29T03:08:15.628Z,59.97
2022-08-29T03:10:43.961Z,59.81
2022-08-29T03:13:11.767Z,59.98
2022-08-29T03:15:39.864Z,59.87
2022-08-29T03:18:07.757Z,59.88
2022-08-29T03:20:38.021Z,59.69
2022-08-29T03:23:06.148Z,59.96
2022-08-29T03:25:35.471Z,60.26
2022-08-29T03:28:04.113Z,60.23
2022-08-29T03:30:31.514Z,60.11
2022-08-29T03:32:58.782Z,60.09
2022-08-29T03:35:26.144Z,60.01
2022-08-29T03:37:55.953Z,60.14
2022-08-29T03:40:24.928Z,60.09
2022-08-29T03:42:53.845Z,59.77
2022-08-29T03:45:22.940Z,59.55
2022-08-29T03:47:50.291Z,59.59
2022-08-29T03:50:17.810Z,59.50
2022-08-29T03:52:45.112Z,59.71
2022-08-29T03:55:13.771Z,59.64
2022-08-29T03:57:41.354Z,59.65
2022-08-29T04:00:12.822Z,59.65
2022-08-29T04:02:40.927Z,59.35
2022-08-29T04:05:09.313Z,59.56
2022-08-29T04:07:52.878Z,59.21
2022-08-29T04:10:25.462Z,59.42
2022-08-29T04:12:55.039Z,59.43
2022-08-29T04:15:25.176Z,59.57
2022-08-29T04:17:55.057Z,59.80
2022-08-29T04:20:32.780Z,59.68
2022-08-29T04:23:00.758Z,59.70
2022-08-29T04:25:33.912Z,59.64
2022-08-29T04:28:13.967Z,59.86
2022-08-29T04:30:51.861Z,59.97
2022-08-29T04:33:24.318Z,59.73
2022-08-29T04:35:52.938Z,59.92
2022-08-29T04:38:20.410Z,59.84
2022-08-29T04:40:48.154Z,60.07
2022-08-29T04:43:15.412Z,59.86
2022-08-29T04:45:42.633Z,60.08
2022-08-29T04:48:10.203Z,60.10
2022-08-29T04:50:37.750Z,59.96
2022-08-29T04:53:05.326Z,60.15
2022-08-29T04:55:32.720Z,60.31
2022-08-29T04:58:00.515Z,60.42
2022-08-29T05:00:29.271Z,60.55
2022-08-29T05:02:58.131Z,60.35
2022-08-29T05:05:25.845Z,60.39
2022-08-29T05:07:53.065Z,60.15
2022-08-29T05:10:21.922Z,60.42
2022-08-29T05:12:49.216Z,60.58
2022-08-29T05:15:19.723Z,60.76
2022-08-29T05:17:47.064Z,60.70
2022-08-29T05:20:14.836Z,61.01
2022-08-29T05:22:42.823Z,60.90
2022-08-29T05:25:18.058Z,60.77
2022-08-29T05:27:46.932Z,60.96
2022-08-29T05:30:16.518Z,60.91
2022-08-29T05:33:01.606Z,61.04
2022-08-29T05:35:28.799Z,61.13
2022-08-29T05:37:56.108Z,60.91
2022-08-29T05:40:23.417Z,61.32
2022-08-29T05:42:50.654Z,61.21
2022-08-29T05:45:18.001Z,61.45
2022-08-29T05:47:45.300Z,61.46
2022-08-29T05:50:12.896Z,61.36
2022-08-29T05:52:41.408Z,61.45
2022-08-29T05:55:09.231Z,61.83
2022-08-29T05:57:36.848Z,61.47
2022-08-29T06:00:07.081Z,61.70
2022-08-29T06:02:34.753Z,61.75
2022-08-29T06:05:02.072Z,61.94
2022-08-29T06:07:29.470Z,62.02
2022-08-29T06:10:00.380Z,62.45
2022-08-29T06:12:31.288Z,62.19
2022-08-29T06:14:58.499Z,62.12
2022-08-29T06:17:25.834Z,62.06
2022-08-29T06:19:53.012Z,62.01
2022-08-29T06:22:20.407Z,62.04
2022-08-29T06:24:47.814Z,62.01
2022-08-29T06:27:16.108Z,61.97
2022-08-29T06:29:43.920Z,62.14
2022-08-29T06:32:13.372Z,62.13
2022-08-29T06:34:41.134Z,62.19
2022-08-29T06:37:08.407Z,62.42
2022-08-29T06:39:35.680Z,62.68
2022-08-29T06:42:03.085Z,62.55
2022-08-29T06:44:30.924Z,62.68
2022-08-29T06:46:59.181Z,62.58
2022-08-29T06:49:27.556Z,62.56
2022-08-29T06:51:58.306Z,62.72
2022-08-29T06:54:28.937Z,62.79
2022-08-29T06:56:58.155Z,62.65
2022-08-29T06:59:26.799Z,62.77
2022-08-29T07:01:54.460Z,62.70
2022-08-29T07:04:21.810Z,62.74
2022-08-29T07:06:50.362Z,62.68
2022-08-29T07:09:18.102Z,62.73
2022-08-29T07:11:53.485Z,62.22
2022-08-29T07:14:29.917Z,62.13
2022-08-29T07:17:01.928Z,61.87
2022-08-29T07:19:29.475Z,61.98
2022-08-29T07:21:59.357Z,61.82
2022-08-29T07:24:27.462Z,61.67
2022-08-29T07:31:06.336Z,61.64
2022-08-29T07:33:35.183Z,61.38
2022-08-29T07:36:03.238Z,61.19
2022-08-29T07:38:31.178Z,61.28
2022-08-29T07:41:02.069Z,60.75
2022-08-29T07:43:29.520Z,60.81
2022-08-29T07:45:58.117Z,60.74
2022-08-29T07:48:26.263Z,60.64
2022-08-29T07:50:53.639Z,60.46
2022-08-29T07:53:20.779Z,60.08
2022-08-29T07:55:48.003Z,59.78
2022-08-29T07:58:15.359Z,59.66
2022-08-29T08:00:42.698Z,59.70
2022-08-29T08:03:09.947Z,59.91
2022-08-29T08:05:37.551Z,59.98
2022-08-29T08:08:08.884Z,60.36
2022-08-29T08:10:42.096Z,60.30
2022-08-29T08:13:09.360Z,60.30
2022-08-29T08:15:39.653Z,60.10
2022-08-29T08:18:07.111Z,59.76
2022-08-29T08:20:35.283Z,59.66
2022-08-29T08:23:02.546Z,59.41
2022-08-29T08:25:29.933Z,59.21
2022-08-29T08:27:57.220Z,58.24
2022-08-29T08:30:25.665Z,58.15
2022-08-29T08:32:54.988Z,57.82
2022-08-29T08:35:22.940Z,57.09
2022-08-29T08:37:50.417Z,55.91
2022-08-29T08:40:26.131Z,55.24
2022-08-29T08:43:00.803Z,53.94
2022-08-29T08:45:43.488Z,53.49
2022-08-29T08:48:26.309Z,53.20
2022-08-29T08:51:34.056Z,52.45
2022-08-29T08:54:07.498Z,52.69
2022-08-29T08:56:47.539Z,52.74
2022-08-29T08:59:26.329Z,52.50
2022-08-29T09:02:25.042Z,52.34
2022-08-29T09:05:30.980Z,50.94
2022-08-29T09:08:16.031Z,49.75
2022-08-29T09:10:56.664Z,50.32
2022-08-29T09:14:13.966Z,49.53
2022-08-29T09:16:48.706Z,49.11
2022-08-29T09:19:17.658Z,48.42
2022-08-29T09:22:06.726Z,48.30
2022-08-29T09:24:49.470Z,48.07
2022-08-29T09:27:24.685Z,46.99
2022-08-29T09:30:09.448Z,46.97
2022-08-29T09:33:03.371Z,46.54
2022-08-29T09:35:46.029Z,46.14
2022-08-29T09:38:22.460Z,46.14
2022-08-29T09:41:03.256Z,46.24
2022-08-29T09:43:39.641Z,44.98
2022-08-29T09:46:25.387Z,45.71
2022-08-29T09:49:12.137Z,45.49
2022-08-29T09:51:47.160Z,45.83
2022-08-29T09:54:29.118Z,44.56
2022-08-29T09:57:08.217Z,45.16
2022-08-29T09:59:49.020Z,44.80
2022-08-29T10:02:46.392Z,43.95
2022-08-29T10:05:44.580Z,44.68
2022-08-29T10:08:33.714Z,43.80
2022-08-29T10:11:06.966Z,43.19
2022-08-29T10:14:02.236Z,44.18
2022-08-29T10:17:00.938Z,43.14
2022-08-29T10:19:33.100Z,42.98
2022-08-29T10:22:38.696Z,43.53
2022-08-29T10:27:40.886Z,41.94
2022-08-29T10:30:15.287Z,40.38
2022-08-29T10:33:16.043Z,41.25
2022-08-29T10:36:11.859Z,40.78
2022-08-29T10:38:48.357Z,37.60
2022-08-29T10:41:24.373Z,35.54
2022-08-29T10:44:26.506Z,33.49
2022-08-29T10:47:02.470Z,32.29
2022-08-29T10:50:02.677Z,32.08
2022-08-29T10:53:13.369Z,28.45
2022-08-29T10:55:55.743Z,28.33
2022-08-29T10:58:43.845Z,25.82
2022-08-29T11:01:53.099Z,24.67
2022-08-29T11:04:37.175Z,23.78
2022-08-29T11:07:33.257Z,22.40
2022-08-29T11:10:12.547Z,22.77
2022-08-29T11:13:15.008Z,21.87
2022-08-29T11:15:48.449Z,21.15
2022-08-29T11:18:29.184Z,21.13
2022-08-29T11:21:22.562Z,20.33
2022-08-29T11:23:50.224Z,20.06
2022-08-29T11:26:34.511Z,19.52
2022-08-29T11:29:24.819Z,19.34
2022-08-29T11:32:01.436Z,18.83
2022-08-29T11:34:31.696Z,18.42
2022-08-29T11:37:13.818Z,19.16
2022-08-29T11:40:15.106Z,18.69
2022-08-29T11:42:53.584Z,18.78
2022-08-29T11:45:37.572Z,19.07
2022-08-29T11:48:19.456Z,20.13
2022-08-29T11:50:47.580Z,20.08
2022-08-29T11:53:28.480Z,20.32
2022-08-29T11:56:14.476Z,20.58
2022-08-29T11:58:46.950Z,21.16
2022-08-29T12:01:35.497Z,20.03
2022-08-29T12:04:08.601Z,20.48
2022-08-29T12:06:52.467Z,21.30
2022-08-29T12:09:43.204Z,20.96
2022-08-29T12:12:17.660Z,21.74
2022-08-29T12:14:52.710Z,21.15
2022-08-29T12:17:24.693Z,20.93
2022-08-29T12:19:57.507Z,20.90
2022-08-29T12:25:28.450Z,21.30
2022-08-29T12:28:03.667Z,21.83
2022-08-29T12:30:43.219Z,20.61
2022-08-29T12:33:29.047Z,22.34
2022-08-29T12:35:59.772Z,23.01
2022-08-29T12:39:04.209Z,22.14
2022-08-29T12:41:46.933Z,22.57
2022-08-29T12:44:19.775Z,22.10
2022-08-29T12:46:55.264Z,22.67
2022-08-29T12:49:40.990Z,21.39
2022-08-29T12:52:22.065Z,21.43
2022-08-29T12:54:55.712Z,21.28
2022-08-29T12:57:37.665Z,21.69
2022-08-29T13:00:27.671Z,20.85
2022-08-29T13:03:15.190Z,21.33
2022-08-29T13:05:44.056Z,21.34
2022-08-29T13:08:15.790Z,22.26
2022-08-29T13:10:56.523Z,21.90
2022-08-29T13:13:25.632Z,22.13
2022-08-29T13:15:55.289Z,21.97
2022-08-29T13:18:23.613Z,21.24
2022-08-29T13:21:06.308Z,21.59
2022-08-29T13:23:43.850Z,21.08
2022-08-29T13:26:11.406Z,20.97
2022-08-29T13:28:54.943Z,21.11
2022-08-29T13:31:30.182Z,20.90
2022-08-29T13:33:57.769Z,21.84
2022-08-29T13:36:49.265Z,23.45
2022-08-29T13:39:16.871Z,22.43
2022-08-29T13:42:01.619Z,21.74
2022-08-29T13:44:53.804Z,20.49
2022-08-29T13:47:40.019Z,21.09
2022-08-29T13:50:10.788Z,20.70
2022-08-29T13:52:38.302Z,21.05
2022-08-29T13:55:09.899Z,21.68
2022-08-29T13:57:40.522Z,20.91
2022-08-29T14:00:09.300Z,20.86
2022-08-29T14:02:39.265Z,21.06
2022-08-29T14:05:10.869Z,20.80
2022-08-29T14:07:40.668Z,21.11
2022-08-29T14:10:09.133Z,20.30
2022-08-29T14:12:36.917Z,20.72
2022-08-29T14:15:09.595Z,20.83
2022-08-29T14:17:41.614Z,20.79
2022-08-29T14:20:10.395Z,20.79
2022-08-29T14:22:38.435Z,20.91
2022-08-29T14:25:08.359Z,21.44
2022-08-29T14:27:36.529Z,20.93
2022-08-29T14:30:06.887Z,19.68
2022-08-29T14:32:34.635Z,19.04
2022-08-29T14:35:02.758Z,18.31
2022-08-29T14:37:30.444Z,20.39
2022-08-29T14:39:59.144Z,19.47
2022-08-29T14:42:26.802Z,18.91
2022-08-29T14:44:54.391Z,20.28
2022-08-29T14:47:22.042Z,19.85
2022-08-29T14:49:49.607Z,20.04
2022-08-29T14:52:17.331Z,22.57
2022-08-29T14:54:44.886Z,23.04
2022-08-29T14:57:12.535Z,23.21
2022-08-29T14:59:40.678Z,22.36
2022-08-29T15:02:09.360Z,23.08
2022-08-29T15:04:37.951Z,23.59
2022-08-29T15:07:11.497Z,22.76
2022-08-29T15:09:40.051Z,24.09
2022-08-29T15:12:08.011Z,25.05
2022-08-29T15:14:35.729Z,21.12
2022-08-29T15:17:04.356Z,23.18
2022-08-29T15:22:21.525Z,22.88
2022-08-29T15:24:50.739Z,24.82
2022-08-29T15:27:24.899Z,24.45
2022-08-29T15:29:55.224Z,24.42
2022-08-29T15:32:23.302Z,24.79
2022-08-29T15:34:51.413Z,24.90
2022-08-29T15:37:19.072Z,25.71
2022-08-29T15:39:46.824Z,25.74
2022-08-29T15:42:17.284Z,25.80
2022-08-29T15:44:45.481Z,26.15
2022-08-29T15:47:13.139Z,25.80
2022-08-29T15:49:42.033Z,25.65
2022-08-29T15:52:11.997Z,25.64
2022-08-29T15:54:40.112Z,25.21
2022-08-29T15:57:08.118Z,24.76
2022-08-29T16:07:00.280Z,27.36
2022-08-29T16:09:28.227Z,27.86
2022-08-29T16:11:59.263Z,28.46
2022-08-29T16:17:23.350Z,29.11
2022-08-29T16:19:51.188Z,29.49
2022-08-29T16:22:47.414Z,30.13
2022-08-29T16:28:57.370Z,31.20
2022-08-29T16:31:25.292Z,31.82
2022-08-29T16:33:53.089Z,32.15
2022-08-29T16:40:35.586Z,33.67
2022-08-29T16:43:04.475Z,33.37
2022-08-29T16:45:36.925Z,34.19
2022-08-29T16:51:38.559Z,34.59
2022-08-29T16:54:06.399Z,35.73
2022-08-29T16:56:34.006Z,36.20
2022-08-29T17:03:21.079Z,37.30
2022-08-29T17:05:48.802Z,37.46
2022-08-29T17:08:17.322Z,38.09
2022-08-29T17:10:46.898Z,38.00
2022-08-29T17:13:24.685Z,38.21
2022-08-29T17:15:52.761Z,39.09
2022-08-29T17:18:20.409Z,39.58
2022-08-29T17:28:41.515Z,40.65
2022-08-29T17:31:09.387Z,40.86
2022-08-29T17:33:37.006Z,40.94
2022-08-29T17:36:05.917Z,41.06
2022-08-29T17:38:33.828Z,41.22
2022-08-29T17:41:04.404Z,41.65
2022-08-29T17:43:43.377Z,41.92
2022-08-29T17:46:10.995Z,41.82
2022-08-29T17:48:38.762Z,42.13
2022-08-29T17:51:06.976Z,42.45
2022-08-29T17:53:34.986Z,43.12
2022-08-29T17:56:20.980Z,43.41
2022-08-29T17:58:48.642Z,43.68
2022-08-29T18:01:17.109Z,43.82
2022-08-29T18:03:45.544Z,44.06
2022-08-29T18:06:14.607Z,44.20
2022-08-29T18:08:47.793Z,44.53
2022-08-29T18:11:16.746Z,45.01
2022-08-29T18:13:44.958Z,45.32
2022-08-29T18:16:14.892Z,44.99
2022-08-29T18:18:42.681Z,44.98
2022-08-29T18:21:11.756Z,45.26
2022-08-29T18:23:42.065Z,45.79
2022-08-29T18:26:09.672Z,45.75
2022-08-29T18:28:37.220Z,46.20
2022-08-29T18:31:05.107Z,46.27
2022-08-29T18:33:50.289Z,46.47
2022-08-29T18:36:20.392Z,46.77
2022-08-29T18:38:48.049Z,46.84
2022-08-29T18:41:15.730Z,46.92
2022-08-29T18:43:43.678Z,47.29
2022-08-29T18:46:11.868Z,47.49
2022-08-29T18:48:39.484Z,47.37
2022-08-29T18:51:07.119Z,47.20
2022-08-29T18:53:34.779Z,47.44
2022-08-29T18:56:02.657Z,47.67
2022-08-29T18:58:32.894Z,47.50
2022-08-29T19:01:13.740Z,48.07
2022-08-29T19:03:41.672Z,48.02
2022-08-29T19:06:09.702Z,48.49
2022-08-29T19:08:38.981Z,48.45
2022-08-29T19:11:07.487Z,48.52
2022-08-29T19:13:35.641Z,48.72
2022-08-29T19:16:04.874Z,48.64
2022-08-29T19:18:32.993Z,48.86
2022-08-29T19:21:00.958Z,48.87
2022-08-29T19:23:31.813Z,49.06
2022-08-29T19:26:00.418Z,49.22
2022-08-29T19:28:28.202Z,49.60
2022-08-29T19:30:55.804Z,49.56
2022-08-29T19:33:24.025Z,49.77
2022-08-29T19:35:52.169Z,49.55
2022-08-29T19:38:21.673Z,49.31
2022-08-29T19:40:50.211Z,49.43
2022-08-29T19:43:18.020Z,49.55
2022-08-29T19:45:45.757Z,49.63
2022-08-29T19:48:15.414Z,49.68
2022-08-29T19:50:47.526Z,49.82
2022-08-29T19:53:24.611Z,49.98
2022-08-29T19:55:56.064Z,49.92
2022-08-29T19:58:31.886Z,50.20
2022-08-29T20:01:06.984Z,50.79
2022-08-29T20:03:39.789Z,50.63
2022-08-29T20:06:07.794Z,51.14
2022-08-29T20:08:42.363Z,50.88
2022-08-29T20:11:19.498Z,50.86
2022-08-29T20:13:51.462Z,50.87
2022-08-29T20:16:22.387Z,51.13
2022-08-29T20:18:50.941Z,51.21
2022-08-29T20:21:19.951Z,50.91
2022-08-29T20:23:49.462Z,50.89
2022-08-29T20:26:21.981Z,50.61
2022-08-29T20:28:51.366Z,50.66
2022-08-29T20:31:20.456Z,50.70
2022-08-29T20:33:48.493Z,50.81
2022-08-29T20:36:18.374Z,50.72
2022-08-29T20:38:46.069Z,50.73
2022-08-29T20:41:13.944Z,51.14
2022-08-29T20:43:48.659Z,50.96
2022-08-29T20:46:16.380Z,50.86
2022-08-29T20:48:43.939Z,50.83
2022-08-29T20:51:11.717Z,50.86
2022-08-29T20:53:41.007Z,51.47
2022-08-29T20:56:08.670Z,51.31
2022-08-29T20:58:36.661Z,51.66
2022-08-29T21:01:04.790Z,51.79
2022-08-29T21:03:32.476Z,51.70
2022-08-29T21:06:00.291Z,51.79
2022-08-29T21:08:27.993Z,51.64
2022-08-29T21:10:55.593Z,51.95
2022-08-29T21:13:23.295Z,51.99
2022-08-29T21:15:51.167Z,52.07
2022-08-29T21:18:20.951Z,51.74
2022-08-29T21:20:53.752Z,51.78
2022-08-29T21:23:24.134Z,52.20
2022-08-29T21:25:57.120Z,52.29
2022-08-29T21:28:25.947Z,52.44
2022-08-29T21:30:55.150Z,52.70
2022-08-29T21:33:22.890Z,52.73
2022-08-29T21:35:50.704Z,52.66
2022-08-29T21:38:18.417Z,52.53
2022-08-29T21:40:50.948Z,52.76
2022-08-29T21:43:19.952Z,52.60
2022-08-29T21:45:48.501Z,52.81
2022-08-29T21:48:16.181Z,52.87
2022-08-29T21:50:43.923Z,52.91
2022-08-29T21:53:13.852Z,53.18
2022-08-29T21:55:42.931Z,53.25
2022-08-29T21:58:10.514Z,53.21
2022-08-29T22:00:38.530Z,53.12
2022-08-29T22:03:08.109Z,53.09
2022-08-29T22:05:35.781Z,53.38
2022-08-29T22:08:07.825Z,53.37
2022-08-29T22:10:41.744Z,53.28
2022-08-29T22:13:09.521Z,53.10
2022-08-29T22:15:37.132Z,53.21
2022-08-29T22:18:05.447Z,52.97
2022-08-29T22:20:33.228Z,53.28
2022-08-29T22:23:00.832Z,53.79
2022-08-29T22:25:28.446Z,54.01
2022-08-29T22:27:56.007Z,53.73
2022-08-29T22:30:32.168Z,54.05
2022-08-29T22:33:01.072Z,54.23
2022-08-29T22:35:29.113Z,54.05
2022-08-29T22:37:56.770Z,53.94
2022-08-29T22:40:24.994Z,54.02
2022-08-29T22:42:52.998Z,53.90
2022-08-29T22:45:21.961Z,53.80
2022-08-29T22:47:49.688Z,53.81
2022-08-29T22:50:21.010Z,53.81
2022-08-29T22:52:49.379Z,54.11
2022-08-29T22:57:48.444Z,54.47
2022-08-29T23:00:20.816Z,54.16
2022-08-29T23:02:50.182Z,54.34
2022-08-29T23:05:19.405Z,54.34
2022-08-29T23:07:47.808Z,54.29
2022-08-29T23:10:15.675Z,54.00
2022-08-29T23:12:43.534Z,54.22
2022-08-29T23:15:14.899Z,54.18
2022-08-29T23:17:42.440Z,54.33
2022-08-29T23:20:12.531Z,54.36
2022-08-29T23:22:40.612Z,54.58
2022-08-29T23:25:12.407Z,54.94
2022-08-29T23:27:40.295Z,54.80
2022-08-29T23:30:11.563Z,54.71
2022-08-29T23:32:39.252Z,54.85
2022-08-29T23:35:07.872Z,54.96
2022-08-29T23:37:35.414Z,54.67
2022-08-29T23:40:03.723Z,54.67
2022-08-29T23:42:32.278Z,54.64
2022-08-29T23:44:59.875Z,54.80
2022-08-29T23:47:27.493Z,54.88
2022-08-29T23:49:55.047Z,54.88
2022-08-29T23:52:22.556Z,54.81
2022-08-29T23:54:50.121Z,55.05
2022-08-29T23:57:17.678Z,54.96
2022-08-29T23:59:45.257Z,54.71
